Time;durP1;ratioP1;P1;durP2;ratioP2;P2;SDS_P1;SDS_P2;PMS_P1;PMS_P2;Temp;Humidity;BMP_temperature;BMP_pressure;BME280_temperature;BME280_humidity;BME280_pressure;Samples;Min_cycle;Max_cycle;Signal;HPM_P1;HPM_P2
2021/04/09 00:01:43;;;;;;;9.98;3.42;;;28.80;86.00;;;;;;5092315;28;20032;-49
2021/04/09 00:04:11;;;;;;;10.40;4.40;;;28.90;86.30;;;;;;5127430;28;20334;-50
2021/04/09 00:06:38;;;;;;;8.90;4.43;;;28.90;86.40;;;;;;5127184;28;20030;-50
2021/04/09 00:09:08;;;;;;;8.93;3.92;;;28.90;86.80;;;;;;5127069;28;20298;-54
2021/04/09 00:11:35;;;;;;;8.93;4.07;;;28.90;87.10;;;;;;5126934;28;20043;-54
2021/04/09 00:14:07;;;;;;;14.27;4.40;;;28.90;87.00;;;;;;5126926;28;20188;-51
2021/04/09 00:16:35;;;;;;;9.07;4.13;;;29.00;86.70;;;;;;5126994;28;20028;-50
2021/04/09 00:19:04;;;;;;;10.18;4.55;;;29.00;86.50;;;;;;5126925;28;20354;-47
2021/04/09 00:21:31;;;;;;;13.55;5.38;;;29.00;86.40;;;;;;5126665;28;20073;-54
2021/04/09 00:23:57;;;;;;;10.07;4.05;;;29.00;86.30;;;;;;5108716;28;20080;-53
2021/04/09 00:26:24;;;;;;;6.20;3.28;;;28.90;87.40;;;;;;5127052;28;20091;-48
2021/04/09 00:28:50;;;;;;;5.68;2.63;;;28.90;87.10;;;;;;5126781;28;20026;-54
2021/04/09 00:31:17;;;;;;;7.25;2.92;;;28.90;86.80;;;;;;5126924;28;20050;-48
2021/04/09 00:33:44;;;;;;;9.05;2.80;;;28.90;86.70;;;;;;5126601;28;20358;-50
2021/04/09 00:36:10;;;;;;;6.72;2.92;;;28.90;86.50;;;;;;5127034;28;20035;-50
2021/04/09 00:38:37;;;;;;;8.07;3.20;;;29.00;86.50;;;;;;5108470;28;20131;-47
2021/04/09 00:41:04;;;;;;;8.95;3.67;;;29.00;86.40;;;;;;5126710;28;20327;-50
2021/04/09 00:43:31;;;;;;;22.17;3.40;;;29.00;86.50;;;;;;5126528;28;20020;-50
2021/04/09 00:45:58;;;;;;;12.32;3.17;;;29.00;86.50;;;;;;5108695;28;20027;-45
2021/04/09 00:48:25;;;;;;;125.38;13.15;;;29.00;86.30;;;;;;5090884;28;20081;-55
2021/04/09 00:50:52;;;;;;;184.45;20.75;;;29.00;86.60;;;;;;5126743;28;20331;-43
2021/04/09 00:53:19;;;;;;;92.97;12.00;;;29.00;86.40;;;;;;5126224;28;20042;-44
2021/04/09 00:55:47;;;;;;;98.88;14.52;;;29.00;86.20;;;;;;5126541;28;20031;-50
2021/04/09 00:58:15;;;;;;;162.10;22.73;;;29.00;86.20;;;;;;5126181;28;20061;-49
2021/04/09 01:00:42;;;;;;;194.95;29.83;;;29.00;86.70;;;;;;5126395;28;20086;-48
2021/04/09 01:03:08;;;;;;;179.88;26.98;;;29.00;86.90;;;;;;5125985;28;20019;-44
2021/04/09 01:05:35;;;;;;;116.93;16.90;;;29.00;86.60;;;;;;5125849;28;20027;-43
2021/04/09 01:08:03;;;;;;;100.80;15.88;;;29.00;86.60;;;;;;5125108;28;20076;-50
2021/04/09 01:10:30;;;;;;;48.38;8.73;;;29.00;86.90;;;;;;5107712;28;20027;-44
2021/04/09 01:12:57;;;;;;;51.47;7.85;;;29.00;86.90;;;;;;5125821;28;20030;-49
2021/04/09 01:15:25;;;;;;;57.30;8.38;;;29.00;87.10;;;;;;5126071;28;20060;-49
2021/04/09 01:18:26;;;;;;;112.75;14.73;;;28.90;87.30;;;;;;5125992;28;20050;-45
2021/04/09 01:21:05;;;;;;;101.72;12.82;;;28.90;86.80;;;;;;5125539;28;20059;-52
2021/04/09 01:24:10;;;;;;;96.53;13.43;;;28.90;87.00;;;;;;5125513;28;20019;-48
2021/04/09 01:27:05;;;;;;;143.02;17.35;;;28.90;87.40;;;;;;5125839;28;20056;-47
2021/04/09 01:30:02;;;;;;;75.95;12.80;;;28.90;87.70;;;;;;5125514;28;20035;-51
2021/04/09 01:32:30;;;;;;;174.40;20.75;;;28.90;87.40;;;;;;5125615;28;20050;-47
2021/04/09 01:35:01;;;;;;;141.27;17.48;;;28.90;87.70;;;;;;5107294;28;20019;-48
2021/04/09 01:37:39;;;;;;;65.70;9.63;;;28.80;88.10;;;;;;5125742;28;20058;-51
2021/04/09 01:40:19;;;;;;;43.95;7.20;;;28.80;88.30;;;;;;5108628;28;20316;-45
2021/04/09 01:42:53;;;;;;;49.17;7.22;;;28.80;88.40;;;;;;5125854;28;20091;-50
2021/04/09 01:45:23;;;;;;;60.70;8.75;;;28.80;88.20;;;;;;5125233;28;20136;-46
2021/04/09 01:47:53;;;;;;;62.75;9.52;;;28.90;88.60;;;;;;5125655;28;20294;-51
2021/04/09 01:50:21;;;;;;;52.03;8.27;;;28.80;88.70;;;;;;5125080;28;20186;-50
2021/04/09 01:52:50;;;;;;;51.15;8.02;;;28.80;88.90;;;;;;5125741;28;20033;-49
2021/04/09 01:55:18;;;;;;;26.30;6.43;;;28.80;88.90;;;;;;5125017;28;20023;-46
2021/04/09 01:57:46;;;;;;;31.00;6.30;;;28.80;89.00;;;;;;5125285;28;20045;-46
2021/04/09 02:00:18;;;;;;;26.60;5.28;;;28.80;89.50;;;;;;5124197;28;20023;-49
2021/04/09 02:02:47;;;;;;;18.77;4.90;;;28.80;88.70;;;;;;5125419;28;20027;-46
2021/04/09 02:05:19;;;;;;;18.73;4.80;;;28.70;89.00;;;;;;5124679;28;20016;-44
2021/04/09 02:07:46;;;;;;;17.02;5.32;;;28.80;88.70;;;;;;5125349;28;20015;-50
2021/04/09 02:10:17;;;;;;;21.58;5.25;;;28.80;89.10;;;;;;5124841;28;20331;-49
2021/04/09 02:12:44;;;;;;;12.32;4.80;;;28.80;89.10;;;;;;5106887;28;20364;-46
2021/04/09 02:15:16;;;;;;;13.95;4.80;;;28.80;89.00;;;;;;5124862;28;20026;-49
2021/04/09 02:17:43;;;;;;;16.65;5.22;;;28.80;89.00;;;;;;5124976;28;20028;-53
2021/04/09 02:20:11;;;;;;;11.82;4.90;;;28.80;89.00;;;;;;5106597;28;20023;-49
2021/04/09 02:22:40;;;;;;;20.15;5.05;;;28.80;89.10;;;;;;5124924;28;20047;-47
2021/04/09 02:25:07;;;;;;;13.95;4.60;;;28.80;89.00;;;;;;5106509;28;20019;-48
2021/04/09 02:27:34;;;;;;;17.67;4.82;;;28.80;89.00;;;;;;5124454;28;20338;-48
2021/04/09 02:30:01;;;;;;;9.05;4.20;;;28.80;88.90;;;;;;5124551;28;20019;-50
2021/04/09 02:32:28;;;;;;;9.18;4.18;;;28.80;89.00;;;;;;5124509;28;20290;-50
2021/04/09 02:34:54;;;;;;;12.80;4.43;;;28.70;89.30;;;;;;5106193;28;20246;-51
2021/04/09 02:37:22;;;;;;;11.48;3.95;;;28.70;89.30;;;;;;5106443;28;20027;-48
2021/04/09 02:39:53;;;;;;;9.88;3.80;;;28.70;89.20;;;;;;5124266;28;20031;-46
2021/04/09 02:42:21;;;;;;;11.20;4.18;;;28.70;89.30;;;;;;5123639;28;20023;-53
2021/04/09 02:44:48;;;;;;;12.55;3.63;;;28.70;89.40;;;;;;5124601;28;20011;-51
2021/04/09 02:47:23;;;;;;;16.95;8.45;;;28.70;89.90;;;;;;5106318;28;20072;-49
2021/04/09 02:50:32;;;;;;;36.15;26.30;;;28.70;89.00;;;;;;5124298;28;20078;-51
2021/04/09 02:53:32;;;;;;;29.98;18.40;;;28.70;89.20;;;;;;5111635;28;20043;-51
2021/04/09 02:56:02;;;;;;;18.38;10.80;;;28.70;89.80;;;;;;5123385;28;20039;-53
2021/04/09 02:58:31;;;;;;;16.00;7.65;;;28.70;89.20;;;;;;5124307;28;20039;-54
2021/04/09 03:00:59;;;;;;;14.40;6.90;;;28.70;89.30;;;;;;5106268;28;20076;-50
2021/04/09 03:03:26;;;;;;;19.10;7.15;;;28.70;89.50;;;;;;5124150;28;20300;-54
2021/04/09 03:05:54;;;;;;;10.10;6.50;;;28.70;89.70;;;;;;5124157;28;20058;-48
2021/04/09 03:08:22;;;;;;;12.25;5.93;;;28.70;89.30;;;;;;5124043;28;20027;-47
2021/04/09 03:10:49;;;;;;;12.63;5.93;;;28.70;89.10;;;;;;5107590;28;20090;-51
2021/04/09 03:13:16;;;;;;;13.02;5.88;;;28.70;89.30;;;;;;5128127;28;20350;-45
2021/04/09 03:15:59;;;;;;;10.77;5.40;;;28.60;89.40;;;;;;5128183;28;20083;-49
2021/04/09 03:18:29;;;;;;;14.68;5.45;;;28.60;89.40;;;;;;5128043;28;20087;-48
2021/04/09 03:20:56;;;;;;;13.43;4.95;;;28.60;89.50;;;;;;5127775;28;20020;-52
2021/04/09 03:23:23;;;;;;;13.70;4.25;;;28.60;89.80;;;;;;5128098;28;20019;-47
2021/04/09 03:25:49;;;;;;;10.23;3.53;;;28.60;89.70;;;;;;5127920;28;20038;-44
2021/04/09 03:28:16;;;;;;;8.93;4.22;;;28.60;89.80;;;;;;5128404;28;20090;-49
2021/04/09 03:30:49;;;;;;;9.57;3.67;;;28.60;90.00;;;;;;5128037;28;20051;-50
2021/04/09 03:33:21;;;;;;;9.18;3.67;;;28.50;89.90;;;;;;5128324;28;20103;-52
2021/04/09 03:35:48;;;;;;;14.18;4.13;;;28.50;89.50;;;;;;5093830;28;20208;-51
2021/04/09 03:38:16;;;;;;;10.25;4.82;;;28.50;89.70;;;;;;5128287;28;20206;-53
2021/04/09 03:40:43;;;;;;;9.80;4.70;;;28.50;89.70;;;;;;5127644;28;20024;-46
2021/04/09 03:43:11;;;;;;;14.35;4.63;;;28.50;89.80;;;;;;5128138;28;20073;-48
2021/04/09 03:45:38;;;;;;;11.93;4.68;;;28.50;89.80;;;;;;5127515;28;20015;-43
2021/04/09 03:48:05;;;;;;;17.02;5.30;;;28.60;90.00;;;;;;5128438;28;20296;-50
2021/04/09 03:50:31;;;;;;;15.90;4.65;;;28.50;90.00;;;;;;5127414;28;20023;-47
2021/04/09 03:52:58;;;;;;;29.30;5.30;;;28.50;90.10;;;;;;5109503;28;20307;-50
2021/04/09 03:55:25;;;;;;;45.72;6.55;;;28.50;90.20;;;;;;5127494;28;20026;-48
2021/04/09 03:57:52;;;;;;;157.68;14.75;;;28.50;90.20;;;;;;5127216;28;20031;-48
2021/04/09 04:00:19;;;;;;;132.18;12.18;;;28.50;90.20;;;;;;5109147;28;20367;-49
2021/04/09 04:02:45;;;;;;;47.10;7.40;;;28.40;90.30;;;;;;5127768;28;20038;-46
2021/04/09 04:05:13;;;;;;;32.75;6.35;;;28.40;90.50;;;;;;5127286;28;20011;-46
2021/04/09 04:07:39;;;;;;;19.38;4.93;;;28.40;90.60;;;;;;5109176;28;20024;-52
2021/04/09 04:10:07;;;;;;;16.65;4.53;;;28.40;90.50;;;;;;5109334;28;20020;-45
2021/04/09 04:12:33;;;;;;;21.80;4.85;;;28.40;90.50;;;;;;5127370;28;20027;-45
2021/04/09 04:15:00;;;;;;;23.63;5.63;;;28.40;90.60;;;;;;5127229;28;20023;-48
2021/04/09 04:17:27;;;;;;;11.25;4.72;;;28.40;90.70;;;;;;5127427;28;20034;-49
2021/04/09 04:19:53;;;;;;;49.10;7.10;;;28.40;90.70;;;;;;5126932;28;20017;-53
2021/04/09 04:22:20;;;;;;;140.10;14.65;;;28.40;90.80;;;;;;5126224;28;20034;-50
2021/04/09 04:24:47;;;;;;;87.72;10.30;;;28.40;90.80;;;;;;5127207;28;20016;-54
2021/04/09 04:27:13;;;;;;;42.28;6.40;;;28.40;90.80;;;;;;5126805;28;20312;-46
2021/04/09 04:29:40;;;;;;;34.35;6.22;;;28.40;90.80;;;;;;5127232;28;20238;-50
2021/04/09 04:32:07;;;;;;;33.40;5.45;;;28.30;91.00;;;;;;5126902;28;20051;-49
2021/04/09 04:34:34;;;;;;;27.77;5.30;;;28.30;91.00;;;;;;5126622;28;20027;-52
2021/04/09 04:37:00;;;;;;;19.63;4.35;;;28.30;91.10;;;;;;5127028;28;20023;-49
2021/04/09 04:39:27;;;;;;;14.68;4.53;;;28.30;91.10;;;;;;5108641;28;20019;-50
2021/04/09 04:41:54;;;;;;;16.48;4.53;;;28.30;91.10;;;;;;5126617;28;20027;-49
2021/04/09 04:44:21;;;;;;;13.77;4.00;;;28.30;91.20;;;;;;5126666;28;20220;-49
2021/04/09 04:46:47;;;;;;;14.27;4.00;;;28.30;91.30;;;;;;5120737;28;20088;-55
2021/04/09 04:49:14;;;;;;;12.13;3.80;;;28.30;91.30;;;;;;5112791;28;20012;-52
2021/04/09 04:51:40;;;;;;;8.30;3.50;;;28.30;91.30;;;;;;5091148;28;20098;-53
2021/04/09 04:54:07;;;;;;;10.05;3.45;;;28.20;91.20;;;;;;5116135;28;20016;-54
2021/04/09 04:56:34;;;;;;;10.68;3.30;;;28.30;91.20;;;;;;5119364;28;20031;-51
2021/04/09 04:59:00;;;;;;;12.95;3.60;;;28.30;91.20;;;;;;5116479;28;20015;-52
2021/04/09 05:01:27;;;;;;;10.25;3.40;;;28.30;91.20;;;;;;5115970;28;20197;-50
2021/04/09 05:03:53;;;;;;;8.30;3.25;;;28.20;91.20;;;;;;5111908;28;20008;-50
2021/04/09 05:06:20;;;;;;;7.97;3.25;;;28.20;91.40;;;;;;5095009;28;20035;-51
2021/04/09 05:08:46;;;;;;;9.57;3.88;;;28.30;91.40;;;;;;5120096;28;20332;-52
2021/04/09 05:11:13;;;;;;;10.25;3.38;;;28.20;91.30;;;;;;5107228;28;21146;-49
2021/04/09 05:13:40;;;;;;;14.18;3.50;;;28.20;91.30;;;;;;5108349;28;20024;-49
2021/04/09 05:16:07;;;;;;;8.43;3.28;;;28.20;91.40;;;;;;5115947;28;20019;-50
2021/04/09 05:18:33;;;;;;;9.18;3.92;;;28.20;91.30;;;;;;5114347;28;20027;-48
2021/04/09 05:21:00;;;;;;;11.40;4.00;;;28.20;91.30;;;;;;5115288;28;20012;-47
2021/04/09 05:23:26;;;;;;;6.63;3.40;;;28.20;91.40;;;;;;5115803;28;20012;-49
2021/04/09 05:25:53;;;;;;;7.63;3.75;;;28.20;91.40;;;;;;5117081;28;20302;-53
2021/04/09 05:28:20;;;;;;;8.25;3.75;;;28.10;91.40;;;;;;5116230;28;20079;-46
2021/04/09 05:30:46;;;;;;;9.88;3.50;;;28.10;91.30;;;;;;5117227;28;20343;-48
2021/04/09 05:33:14;;;;;;;8.60;3.78;;;28.10;91.40;;;;;;5117089;28;20019;-48
2021/04/09 05:35:40;;;;;;;7.13;3.28;;;28.10;91.30;;;;;;5113354;28;20095;-49
2021/04/09 05:38:07;;;;;;;9.43;3.50;;;28.20;91.30;;;;;;5114601;28;20320;-47
2021/04/09 05:40:33;;;;;;;10.73;3.10;;;28.20;91.30;;;;;;5116673;28;20016;-48
2021/04/09 05:43:04;;;;;;;7.88;3.50;;;28.10;91.30;;;;;;5122140;28;20087;-55
2021/04/09 05:45:30;;;;;;;10.10;4.18;;;28.20;91.30;;;;;;5125380;28;20020;-49
2021/04/09 05:48:03;;;;;;;9.55;4.28;;;28.20;91.30;;;;;;5126085;28;20129;-49
2021/04/09 05:50:30;;;;;;;11.43;4.60;;;28.10;91.30;;;;;;5125319;28;20019;-48
2021/04/09 05:52:56;;;;;;;10.50;4.30;;;28.10;91.40;;;;;;5125718;28;20028;-49
2021/04/09 05:55:23;;;;;;;8.32;3.90;;;28.10;91.50;;;;;;5125616;28;20016;-53
2021/04/09 05:57:50;;;;;;;6.65;4.03;;;28.00;91.40;;;;;;5125590;28;20035;-46
2021/04/09 06:00:18;;;;;;;11.70;3.60;;;28.00;91.40;;;;;;5125043;28;20023;-52
2021/04/09 06:02:45;;;;;;;8.70;3.72;;;28.00;91.40;;;;;;5125293;28;20042;-46
2021/04/09 06:05:12;;;;;;;8.65;3.63;;;28.10;91.40;;;;;;5124829;28;20297;-53
2021/04/09 06:07:38;;;;;;;11.02;3.53;;;28.00;91.30;;;;;;5125365;28;20024;-54
2021/04/09 06:10:06;;;;;;;8.07;3.50;;;28.00;91.30;;;;;;5125308;28;20208;-56
2021/04/09 06:12:33;;;;;;;14.27;3.65;;;28.00;91.40;;;;;;5125057;28;20199;-49
2021/04/09 06:15:00;;;;;;;12.80;3.35;;;28.00;91.40;;;;;;5125076;28;20387;-50
2021/04/09 06:17:26;;;;;;;8.73;3.28;;;28.00;91.40;;;;;;5125273;28;20028;-52
2021/04/09 06:19:53;;;;;;;8.05;3.25;;;28.00;91.30;;;;;;5124847;28;20023;-55
2021/04/09 06:22:20;;;;;;;8.18;3.33;;;28.00;91.30;;;;;;5125173;28;20374;-57
2021/04/09 06:24:46;;;;;;;8.43;3.17;;;28.00;91.20;;;;;;5124860;28;20019;-45
2021/04/09 06:27:13;;;;;;;10.27;3.65;;;28.00;91.20;;;;;;5124867;28;20316;-49
2021/04/09 06:29:39;;;;;;;9.15;3.55;;;28.00;91.20;;;;;;5124812;28;20016;-49
2021/04/09 06:32:06;;;;;;;6.85;3.83;;;28.00;91.20;;;;;;5124894;28;20228;-53
2021/04/09 06:34:33;;;;;;;7.68;3.22;;;28.00;91.30;;;;;;5124788;28;20315;-52
2021/04/09 06:37:00;;;;;;;10.40;3.28;;;28.00;91.30;;;;;;5124916;28;20027;-47
2021/04/09 06:39:27;;;;;;;5.43;2.88;;;28.00;91.40;;;;;;5124732;28;20016;-52
2021/04/09 06:41:54;;;;;;;9.98;3.50;;;27.90;91.50;;;;;;5124586;28;20304;-55
2021/04/09 06:44:21;;;;;;;9.40;3.05;;;27.90;91.50;;;;;;5124453;28;20019;-50
2021/04/09 06:46:48;;;;;;;9.88;3.78;;;27.90;91.40;;;;;;5124120;28;20023;-52
2021/04/09 06:49:14;;;;;;;10.15;3.40;;;27.90;91.40;;;;;;5124772;28;20012;-52
2021/04/09 06:51:49;;;;;;;12.60;3.65;;;27.90;91.50;;;;;;5124724;28;20034;-52
2021/04/09 06:54:17;;;;;;;10.88;3.70;;;27.90;91.50;;;;;;5124500;28;20024;-53
2021/04/09 06:56:47;;;;;;;7.28;3.90;;;27.90;91.70;;;;;;5124381;28;20296;-53
2021/04/09 06:59:21;;;;;;;9.70;3.33;;;27.90;91.60;;;;;;5124739;28;20023;-49
2021/04/09 07:01:49;;;;;;;7.82;3.30;;;27.90;91.50;;;;;;5124458;28;20073;-50
2021/04/09 07:04:17;;;;;;;10.38;3.67;;;27.90;91.50;;;;;;5124513;28;20020;-51
2021/04/09 07:06:44;;;;;;;9.05;3.22;;;27.90;91.60;;;;;;5124532;28;20082;-50
2021/04/09 07:09:14;;;;;;;9.68;3.88;;;27.90;91.60;;;;;;5124419;28;20361;-52
2021/04/09 07:11:48;;;;;;;9.48;3.38;;;27.80;91.60;;;;;;5124349;28;20059;-56
2021/04/09 07:14:14;;;;;;;10.15;3.20;;;27.80;91.70;;;;;;5124073;28;20034;-53
2021/04/09 07:16:59;;;;;;;11.45;3.88;;;27.80;91.70;;;;;;5124514;28;20305;-50
2021/04/09 07:19:35;;;;;;;10.65;3.83;;;27.80;91.70;;;;;;5124283;28;20023;-47
2021/04/09 07:22:06;;;;;;;7.60;3.40;;;27.80;91.80;;;;;;5124237;28;20229;-54
2021/04/09 07:24:33;;;;;;;9.07;3.38;;;27.80;91.80;;;;;;5124265;28;20020;-55
2021/04/09 07:27:00;;;;;;;13.32;3.53;;;27.80;91.80;;;;;;5124382;28;20020;-52
2021/04/09 07:29:33;;;;;;;8.35;3.53;;;27.70;91.80;;;;;;5123970;28;20020;-57
2021/04/09 07:32:14;;;;;;;13.05;4.25;;;27.70;91.80;;;;;;5124325;28;20063;-52
2021/04/09 07:35:16;;;;;;;13.68;3.67;;;27.70;91.70;;;;;;5124184;28;20020;-54
2021/04/09 07:37:56;;;;;;;12.73;3.70;;;27.70;91.70;;;;;;5124478;28;20268;-47
2021/04/09 07:40:29;;;;;;;11.23;3.70;;;27.70;91.80;;;;;;5124077;28;20334;-50
2021/04/09 07:42:57;;;;;;;10.77;3.83;;;27.70;92.00;;;;;;5124296;28;20054;-50
2021/04/09 07:45:26;;;;;;;8.15;3.47;;;27.80;91.80;;;;;;5124009;28;20057;-54
2021/04/09 07:47:58;;;;;;;13.20;4.57;;;27.80;91.90;;;;;;5124534;28;20020;-57
2021/04/09 07:50:51;;;;;;;13.73;4.55;;;27.70;91.90;;;;;;5124173;28;20016;-55
2021/04/09 07:53:21;;;;;;;12.77;4.10;;;27.80;92.00;;;;;;5113691;28;20102;-55
2021/04/09 07:55:47;;;;;;;10.75;3.65;;;27.70;91.90;;;;;;5123986;28;20032;-55
2021/04/09 07:58:23;;;;;;;7.97;3.50;;;27.70;91.90;;;;;;5126510;28;20027;-48
2021/04/09 08:00:52;;;;;;;10.05;3.80;;;27.70;91.90;;;;;;5127534;28;20023;-56
2021/04/09 08:03:38;;;;;;;8.60;3.45;;;27.70;91.80;;;;;;5127437;28;20032;-49
2021/04/09 08:06:22;;;;;;;10.52;3.72;;;27.70;91.80;;;;;;5127424;28;20024;-51
2021/04/09 08:08:48;;;;;;;12.23;3.60;;;27.70;91.80;;;;;;5127786;28;20026;-56
2021/04/09 08:11:28;;;;;;;11.48;3.97;;;27.70;91.80;;;;;;5127474;28;20234;-50
2021/04/09 08:13:58;;;;;;;13.02;3.80;;;27.70;91.80;;;;;;5127690;28;20248;-51
2021/04/09 08:16:35;;;;;;;9.65;3.88;;;27.70;91.80;;;;;;5127400;28;20032;-52
2021/04/09 08:19:10;;;;;;;8.32;3.60;;;27.70;91.80;;;;;;5127922;28;20030;-51
2021/04/09 08:21:42;;;;;;;9.00;3.50;;;27.70;91.80;;;;;;5127109;28;20249;-51
2021/04/09 08:24:10;;;;;;;10.57;3.67;;;27.70;91.90;;;;;;5127225;28;20043;-52
2021/04/09 08:26:38;;;;;;;9.88;3.75;;;27.70;91.90;;;;;;5127297;28;20030;-47
2021/04/09 08:29:08;;;;;;;6.35;3.45;;;27.70;91.90;;;;;;5126931;28;20022;-55
2021/04/09 08:31:37;;;;;;;12.18;3.67;;;27.70;92.00;;;;;;5126942;28;20093;-48
2021/04/09 08:34:06;;;;;;;10.80;3.67;;;27.70;92.00;;;;;;5126879;28;20024;-53
2021/04/09 08:36:34;;;;;;;13.73;3.58;;;27.70;92.10;;;;;;5127066;28;20026;-51
2021/04/09 08:39:03;;;;;;;9.30;3.38;;;27.70;92.00;;;;;;5127224;28;20030;-51
2021/04/09 08:41:31;;;;;;;9.48;3.63;;;27.70;92.10;;;;;;5126941;28;20164;-52
2021/04/09 08:43:57;;;;;;;8.85;3.58;;;27.60;92.00;;;;;;5126615;28;20015;-51
2021/04/09 08:46:24;;;;;;;9.07;3.83;;;27.60;92.00;;;;;;5126638;28;20020;-49
2021/04/09 08:48:55;;;;;;;8.57;3.42;;;27.60;92.00;;;;;;5126796;28;20242;-52
2021/04/09 08:51:27;;;;;;;13.95;3.75;;;27.60;92.00;;;;;;5126617;28;20237;-56
2021/04/09 08:53:53;;;;;;;9.45;3.60;;;27.60;92.00;;;;;;5126432;28;20025;-60
2021/04/09 08:56:37;;;;;;;8.25;3.83;;;27.60;92.00;;;;;;5126496;28;20031;-52
2021/04/09 08:59:04;;;;;;;10.18;3.58;;;27.60;92.00;;;;;;5126329;28;20029;-56
2021/04/09 09:01:30;;;;;;;10.32;3.53;;;27.60;92.10;;;;;;5126496;28;20035;-55
2021/04/09 09:04:33;;;;;;;9.18;3.58;;;27.60;92.10;;;;;;5126103;28;20024;-52
2021/04/09 09:06:59;;;;;;;10.32;3.47;;;27.50;92.20;;;;;;5073614;28;20208;-52
2021/04/09 09:09:35;;;;;;;11.27;4.07;;;27.50;92.20;;;;;;5125752;28;20024;-52
2021/04/09 09:12:04;;;;;;;12.80;3.72;;;27.50;92.30;;;;;;5126707;28;20032;-53
2021/04/09 09:14:33;;;;;;;8.05;3.58;;;27.50;92.30;;;;;;5125954;28;20242;-51
2021/04/09 09:17:20;;;;;;;10.38;3.88;;;27.50;92.40;;;;;;5126497;28;20047;-54
2021/04/09 09:20:05;;;;;;;7.00;3.38;;;27.50;92.40;;;;;;5109065;28;20032;-51
2021/04/09 09:22:47;;;;;;;9.80;3.50;;;27.50;92.40;;;;;;5125876;28;20243;-51
2021/04/09 09:25:14;;;;;;;6.80;3.03;;;27.50;92.50;;;;;;5125937;28;20022;-51
2021/04/09 09:27:47;;;;;;;8.18;3.38;;;27.40;92.40;;;;;;5126143;28;20185;-51
2021/04/09 09:30:36;;;;;;;9.50;3.60;;;27.40;92.50;;;;;;5125623;28;20023;-52
2021/04/09 09:33:23;;;;;;;6.88;3.60;;;27.40;92.50;;;;;;5126014;28;20103;-52
2021/04/09 09:36:10;;;;;;;10.07;4.35;;;27.40;92.40;;;;;;5125858;28;20015;-51
2021/04/09 09:38:54;;;;;;;12.25;3.90;;;27.40;92.40;;;;;;5125532;28;20039;-50
2021/04/09 09:41:39;;;;;;;10.90;4.03;;;27.40;92.60;;;;;;5125310;28;20031;-51
2021/04/09 09:44:40;;;;;;;8.68;3.58;;;27.30;92.30;;;;;;5125213;28;20042;-54
2021/04/09 09:47:26;;;;;;;9.40;4.30;;;27.30;92.30;;;;;;5072123;28;20032;-51
2021/04/09 09:50:07;;;;;;;11.95;4.32;;;27.30;92.40;;;;;;5125170;28;20015;-49
2021/04/09 09:52:48;;;;;;;7.82;4.03;;;27.30;92.50;;;;;;5125301;28;20059;-53
2021/04/09 09:55:37;;;;;;;11.00;3.83;;;27.20;92.50;;;;;;5125623;28;20296;-51
2021/04/09 09:58:25;;;;;;;9.25;3.63;;;27.20;92.60;;;;;;5125436;28;20334;-51
2021/04/09 10:00:53;;;;;;;14.30;4.55;;;27.20;92.60;;;;;;5124878;28;20023;-52
2021/04/09 10:03:28;;;;;;;18.75;6.35;;;27.10;92.60;;;;;;5106633;28;20027;-54
2021/04/09 10:05:58;;;;;;;17.13;5.85;;;27.10;92.60;;;;;;5124980;28;20323;-52
2021/04/09 10:08:26;;;;;;;15.68;5.95;;;27.10;92.40;;;;;;5125176;28;20032;-53
2021/04/09 10:11:02;;;;;;;17.70;6.47;;;27.10;92.20;;;;;;5125277;28;20031;-53
2021/04/09 10:13:30;;;;;;;17.33;5.53;;;27.00;92.10;;;;;;5125197;28;20035;-52
2021/04/09 10:16:19;;;;;;;13.85;5.25;;;27.00;91.70;;;;;;5125329;28;20068;-51
2021/04/09 10:18:52;;;;;;;14.55;4.75;;;27.00;91.60;;;;;;5124798;28;20020;-50
2021/04/09 10:21:27;;;;;;;11.35;4.13;;;27.00;91.40;;;;;;5123965;28;20031;-58
2021/04/09 10:24:15;;;;;;;12.40;4.10;;;27.00;90.90;;;;;;5124577;28;20099;-52
2021/04/09 10:27:04;;;;;;;10.63;3.45;;;26.90;91.10;;;;;;5125010;28;20023;-49
2021/04/09 10:29:34;;;;;;;10.52;3.38;;;26.90;91.00;;;;;;5124862;28;20242;-55
2021/04/09 10:32:04;;;;;;;6.93;2.95;;;26.90;91.00;;;;;;5124741;28;20055;-49
2021/04/09 10:34:35;;;;;;;6.72;3.28;;;26.90;90.80;;;;;;5124645;28;20019;-54
2021/04/09 10:37:03;;;;;;;7.85;3.42;;;26.90;90.80;;;;;;5106565;28;20220;-55
2021/04/09 10:39:31;;;;;;;10.27;3.38;;;26.80;90.70;;;;;;5124365;28;20045;-54
2021/04/09 10:42:02;;;;;;;10.25;3.67;;;26.80;90.90;;;;;;5124184;28;20024;-51
2021/04/09 10:44:31;;;;;;;9.15;3.17;;;26.80;90.90;;;;;;5124393;28;20022;-52
2021/04/09 10:47:02;;;;;;;9.35;2.83;;;26.80;90.80;;;;;;5124799;28;20030;-51
2021/04/09 10:49:32;;;;;;;7.82;3.08;;;26.80;90.70;;;;;;5124590;28;20230;-53
2021/04/09 10:52:11;;;;;;;8.23;3.00;;;26.80;90.70;;;;;;5124592;28;20027;-53
2021/04/09 10:54:40;;;;;;;8.65;3.65;;;26.80;90.80;;;;;;5124411;28;20035;-52
2021/04/09 10:57:11;;;;;;;8.55;2.97;;;26.70;90.80;;;;;;5124969;28;20207;-52
2021/04/09 10:59:43;;;;;;;7.55;2.92;;;26.70;90.60;;;;;;5124599;28;20016;-53
2021/04/09 11:02:20;;;;;;;5.97;2.40;;;26.60;90.50;;;;;;5124557;28;20031;-54
2021/04/09 11:04:51;;;;;;;8.50;2.10;;;26.60;90.40;;;;;;5124213;28;20020;-55
2021/04/09 11:07:18;;;;;;;7.47;2.22;;;26.60;90.30;;;;;;5124352;28;20037;-53
2021/04/09 11:09:50;;;;;;;5.38;1.80;;;26.50;90.10;;;;;;5124318;28;20020;-54
2021/04/09 11:12:29;;;;;;;10.77;2.17;;;26.40;90.00;;;;;;5124502;28;20124;-53
2021/04/09 11:15:11;;;;;;;5.63;2.08;;;26.40;90.10;;;;;;5124249;28;20028;-59
2021/04/09 11:17:39;;;;;;;6.47;1.98;;;26.30;90.30;;;;;;5124286;28;20077;-52
2021/04/09 11:20:34;;;;;;;6.63;2.20;;;26.30;90.50;;;;;;5123856;28;20023;-55
2021/04/09 11:23:07;;;;;;;5.95;2.80;;;26.30;90.70;;;;;;5124343;28;20030;-53
2021/04/09 11:25:38;;;;;;;8.52;2.40;;;26.30;90.90;;;;;;5124039;28;20024;-55
2021/04/09 11:28:07;;;;;;;12.20;2.95;;;26.30;91.10;;;;;;5124014;28;20093;-57
2021/04/09 11:30:37;;;;;;;7.00;3.00;;;26.30;91.40;;;;;;5124042;28;20072;-52
2021/04/09 11:33:04;;;;;;;6.22;2.63;;;26.30;91.60;;;;;;5128170;28;20114;-54
2021/04/09 11:35:38;;;;;;;10.70;3.50;;;26.30;91.60;;;;;;5128226;28;20020;-54
2021/04/09 11:38:14;;;;;;;8.32;2.90;;;26.30;91.70;;;;;;5128193;28;20292;-54
2021/04/09 11:40:43;;;;;;;6.05;3.38;;;26.30;91.70;;;;;;5127974;28;20027;-50
2021/04/09 11:43:12;;;;;;;8.27;3.05;;;26.30;91.80;;;;;;5128388;28;20055;-52
2021/04/09 11:45:50;;;;;;;7.53;3.22;;;26.30;91.70;;;;;;5128072;28;20133;-55
2021/04/09 11:48:28;;;;;;;5.70;3.15;;;26.40;91.70;;;;;;5128160;28;20031;-54
2021/04/09 11:51:15;;;;;;;10.10;3.58;;;26.40;92.00;;;;;;5127740;28;20026;-49
2021/04/09 11:53:42;;;;;;;8.23;3.20;;;26.40;91.70;;;;;;5127226;28;20027;-55
2021/04/09 11:56:09;;;;;;;8.75;3.60;;;26.40;91.70;;;;;;5127455;28;20204;-50
2021/04/09 11:58:45;;;;;;;6.88;3.90;;;26.40;91.70;;;;;;5127671;28;20016;-53
2021/04/09 12:01:11;;;;;;;9.05;3.88;;;26.40;91.80;;;;;;5127372;28;20262;-56
2021/04/09 12:03:40;;;;;;;10.23;3.53;;;26.40;91.90;;;;;;5127493;28;20035;-57
2021/04/09 12:06:16;;;;;;;10.75;4.60;;;26.40;91.90;;;;;;5127164;28;20024;-54
2021/04/09 12:08:44;;;;;;;9.63;3.78;;;26.30;91.80;;;;;;5127580;28;20023;-52
2021/04/09 12:11:12;;;;;;;9.00;3.50;;;26.40;91.70;;;;;;5127158;28;20020;-48
2021/04/09 12:13:43;;;;;;;8.20;2.65;;;26.30;91.00;;;;;;5127208;28;20060;-54
2021/04/09 12:16:10;;;;;;;8.07;3.17;;;26.30;90.80;;;;;;5127261;28;20011;-55
2021/04/09 12:18:36;;;;;;;8.18;2.88;;;26.30;90.70;;;;;;5127071;28;20023;-52
2021/04/09 12:21:04;;;;;;;5.82;2.60;;;26.30;90.60;;;;;;5126994;28;20274;-52
2021/04/09 12:23:30;;;;;;;4.70;2.45;;;26.30;90.50;;;;;;5127266;28;20050;-55
2021/04/09 12:25:57;;;;;;;7.22;2.35;;;26.30;90.50;;;;;;5126721;28;20019;-54
2021/04/09 12:28:24;;;;;;;4.00;2.10;;;26.30;90.30;;;;;;5126929;28;20011;-51
2021/04/09 12:30:52;;;;;;;6.63;2.40;;;26.30;90.20;;;;;;5126777;28;20075;-54
2021/04/09 12:33:24;;;;;;;4.72;2.20;;;26.30;90.30;;;;;;5126884;28;20240;-51
2021/04/09 12:35:51;;;;;;;7.05;2.88;;;26.30;90.50;;;;;;5126838;28;20071;-56
2021/04/09 12:38:18;;;;;;;8.20;2.80;;;26.30;90.40;;;;;;5127038;28;20028;-52
2021/04/09 12:40:45;;;;;;;6.97;2.88;;;26.20;90.40;;;;;;5126656;28;20078;-57
2021/04/09 12:43:11;;;;;;;7.30;3.20;;;26.20;90.50;;;;;;5126526;28;20027;-52
2021/04/09 12:45:38;;;;;;;6.97;2.88;;;26.20;90.60;;;;;;5126811;28;20019;-59
2021/04/09 12:48:05;;;;;;;8.30;3.10;;;26.10;90.50;;;;;;5108720;28;20023;-52
2021/04/09 12:50:32;;;;;;;5.78;2.83;;;26.10;90.40;;;;;;5126733;28;20018;-55
2021/04/09 12:52:59;;;;;;;7.00;2.50;;;26.10;90.20;;;;;;5126985;28;20023;-52
2021/04/09 12:55:26;;;;;;;7.07;2.42;;;26.10;90.10;;;;;;5126420;28;20189;-54
2021/04/09 12:57:53;;;;;;;9.98;3.13;;;26.10;90.00;;;;;;5126923;28;20031;-53
2021/04/09 13:00:20;;;;;;;6.50;2.72;;;26.10;90.10;;;;;;5126279;28;20027;-52